Weather reports worldwide

Advertisment
Kew Gardens, United Kingdom (99095): temperature & dewpoint: 18.01.2020 02:00:00 - 24.01.2020 02:00:00 (GMT)Kew Gardens, United Kingdom (99095): temperature -20cm & temperature -100cm: 18.01.2020 02:00:00 - 24.01.2020 02:00:00 (GMT)Kew Gardens, United Kingdom (99095): wind speed: 18.01.2020 02:00:00 - 24.01.2020 02:00:00 (GMT)Kew Gardens, United Kingdom (99095): wind direction: 18.01.2020 02:00:00 - 24.01.2020 02:00:00 (GMT)Kew Gardens, United Kingdom (99095): precipitation: 18.01.2020 02:00:00 - 24.01.2020 02:00:00 (GMT)
Date & Time tt [°C] td [°C] tt -20cm [°C] tt -100cm [°C] ff [km/h] ff [kn] dd rr [mm]
24.01.2020 02:00:00 - - - - - - - -
24.01.2020 01:00:00 6,3 5,1 - - 2 1 NNW 0,0
24.01.2020 00:00:00 6,8 5,2 - - 2 1 N 0,0
23.01.2020 23:00:00 7,2 4,8 - - 4 2 N 0,0
23.01.2020 22:00:00 7,2 4,5 - - 5 3 NNW 0,0
23.01.2020 21:00:00 7,2 4,9 - - 4 2 NNE 0,0
23.01.2020 20:00:00 7,4 5,1 - - 2 1 NNE 0,0
23.01.2020 19:00:00 7,6 5,1 - - 4 2 NNW 0,0
23.01.2020 18:00:00 7,5 5,2 - - 2 1 NNW 0,0
23.01.2020 17:00:00 7,3 5,2 - - 2 1 ENE 0,0
23.01.2020 16:00:00 7,4 5,4 - - 2 1 WSW 0,0
23.01.2020 15:00:00 7,9 5,0 - - 2 1 SE 0,0
23.01.2020 14:00:00 8,1 5,1 - - 4 2 ESE 0,0
23.01.2020 13:00:00 8,1 5,6 - - 4 2 E 0,0
23.01.2020 12:00:00 8,1 5,8 - - 4 2 SE 0,0
23.01.2020 11:00:00 7,9 5,2 - - 5 3 ESE 0,0
23.01.2020 10:00:00 7,7 4,9 - - 5 3 ESE 0,0
23.01.2020 09:00:00 7,5 5,3 5,7 8,0 4 2 SE 0,0
23.01.2020 08:00:00 7,4 5,1 - - 4 2 ESE 0,0
23.01.2020 07:00:00 7,1 5,0 - - 4 2 ESE 0,0
23.01.2020 06:00:00 7,3 4,8 - - 4 2 E 0,0
23.01.2020 05:00:00 7,6 4,9 - - 5 3 E 0,0
23.01.2020 04:00:00 7,4 4,8 - - 4 2 E 0,0
23.01.2020 03:00:00 7,6 5,1 - - 9 5 E 0,0
23.01.2020 02:00:00 7,4 5,2 - - 5 3 E 0,0
23.01.2020 01:00:00 7,3 5,3 - - 5 3 ESE 0,0
23.01.2020 00:00:00 7,4 5,7 - - 5 3 E 0,0
22.01.2020 23:00:00 7,4 5,8 - - 5 3 ESE 0,0
22.01.2020 22:00:00 7,5 5,7 - - 8 4 ESE 0,0
22.01.2020 21:00:00 7,4 5,8 - - 5 3 ESE 0,0
22.01.2020 20:00:00 7,8 6,6 - - 8 4 ENE 0,0
22.01.2020 19:00:00 7,2 7,0 - - 5 3 ENE 0,0
22.01.2020 18:00:00 6,2 6,0 - - 2 1 SE 0,0
22.01.2020 17:00:00 6,4 6,1 - - 0 0 N 0,0
22.01.2020 16:00:00 6,8 6,5 - - 0 0 N 0,2
22.01.2020 15:00:00 6,9 6,7 - - 2 1 SSW 0,0
22.01.2020 14:00:00 6,8 6,6 - - 2 1 W 0,0
22.01.2020 13:00:00 6,4 6,3 - - 0 0 N 0,0
22.01.2020 12:00:00 5,7 5,6 - - 0 0 N 0,0
22.01.2020 11:00:00 5,2 5,1 - - 2 1 SSW 0,0
22.01.2020 10:00:00 4,2 4,1 - - 2 1 S 0,0
22.01.2020 09:00:00 3,5 3,4 4,5 8,2 2 1 SW 0,0
22.01.2020 08:00:00 3,3 3,2 - - 2 1 WSW 0,0
22.01.2020 07:00:00 3,2 3,1 - - 2 1 NW 0,0
22.01.2020 06:00:00 2,8 2,7 - - 4 2 WNW 0,0
22.01.2020 05:00:00 2,5 2,5 - - 2 1 NW 0,0
22.01.2020 04:00:00 2,2 2,1 - - 2 1 NW 0,0
22.01.2020 03:00:00 1,8 1,7 - - 2 1 SSW 0,0
22.01.2020 02:00:00 1,2 1,1 - - 2 1 WSW 0,0
22.01.2020 01:00:00 0,7 0,5 - - 4 2 WSW 0,0
22.01.2020 00:00:00 0,2 0,0 - - 4 2 NW 0,0
21.01.2020 23:00:00 0,1 -0,1 - - 2 1 W 0,0
21.01.2020 22:00:00 -0,9 -1,2 - - 2 1 W 0,0
21.01.2020 21:00:00 -0,5 -0,7 - - 4 2 WSW 0,0
21.01.2020 20:00:00 -0,4 -0,8 - - 2 1 W 0,0
21.01.2020 19:00:00 -0,1 -0,7 - - 4 2 WSW 0,0
21.01.2020 18:00:00 0,9 0,2 - - 2 1 WSW 0,0
21.01.2020 17:00:00 2,6 1,0 - - 2 1 W 0,0
21.01.2020 16:00:00 5,7 2,1 - - 5 3 WSW 0,0
21.01.2020 15:00:00 8,3 2,5 - - 5 3 W 0,0
21.01.2020 14:00:00 8,1 3,3 - - 8 4 WNW 0,0
21.01.2020 13:00:00 7,3 3,5 - - 4 2 WSW 0,0
21.01.2020 12:00:00 5,0 3,1 - - 4 2 S 0,2
21.01.2020 11:00:00 2,0 1,6 - - 5 3 SSW 0,0
21.01.2020 10:00:00 -0,2 -0,4 - - 4 2 SW 0,0
21.01.2020 09:00:00 -1,7 -1,9 4,7 8,4 2 1 W 0,0
21.01.2020 08:00:00 -2,0 -2,2 - - 2 1 SW 0,0
21.01.2020 07:00:00 -2,3 -2,6 - - 4 2 SSW 0,0
21.01.2020 06:00:00 -2,8 -3,2 - - 2 1 SW 0,0
21.01.2020 05:00:00 -2,8 -3,2 - - 4 2 WSW 0,0
21.01.2020 04:00:00 -2,6 -3,0 - - 2 1 SSW 0,0
21.01.2020 03:00:00 -2,5 -2,8 - - 0 0 N 0,0
21.01.2020 02:00:00 -1,6 -1,8 - - 4 2 WNW 0,0
21.01.2020 01:00:00 -1,8 -2,1 - - 4 2 SW 0,0
21.01.2020 00:00:00 -2,0 -2,4 - - 2 1 SW 0,0
20.01.2020 23:00:00 -2,0 -2,3 - - 4 2 SSW 0,0
20.01.2020 22:00:00 -1,4 -1,8 - - 2 1 S 0,0
20.01.2020 21:00:00 -0,6 -0,9 - - 4 2 WNW 0,0
20.01.2020 20:00:00 -0,5 -1,0 - - 2 1 W 0,0
20.01.2020 19:00:00 0,3 -0,3 - - 4 2 W 0,0
20.01.2020 18:00:00 1,4 0,5 - - 4 2 W 0,0
20.01.2020 17:00:00 2,7 0,6 - - 4 2 SSW 0,0
20.01.2020 16:00:00 5,6 1,1 - - 4 2 SSW 0,0
20.01.2020 15:00:00 8,1 1,9 - - 4 2 SW 0,0
20.01.2020 14:00:00 7,9 2,0 - - 4 2 SW 0,0
20.01.2020 13:00:00 5,3 2,5 - - 2 1 S 0,0
20.01.2020 12:00:00 5,0 1,6 - - 4 2 SSW 0,0
20.01.2020 11:00:00 3,6 1,3 - - 5 3 W 0,0
20.01.2020 10:00:00 2,6 1,8 - - 2 1 SSW 0,0
20.01.2020 09:00:00 1,1 0,9 5,0 8,7 2 1 SSW 0,0
20.01.2020 08:00:00 0,4 0,2 - - 2 1 S 0,0
20.01.2020 07:00:00 0,2 0,0 - - 4 2 S 0,0
20.01.2020 06:00:00 -0,4 -0,8 - - 2 1 W 0,0
20.01.2020 05:00:00 -0,4 -0,9 - - 4 2 SSW 0,0
20.01.2020 04:00:00 0,6 0,1 - - 2 1 SSW 0,0
20.01.2020 03:00:00 1,3 0,3 - - 4 2 NW 0,0
20.01.2020 02:00:00 0,3 0,2 - - 4 2 SW 0,0
20.01.2020 01:00:00 0,2 0,0 - - 2 1 S 0,0
20.01.2020 00:00:00 -0,1 -0,3 - - 4 2 W 0,0
19.01.2020 23:00:00 -0,7 -0,8 - - 4 2 WSW 0,0
19.01.2020 22:00:00 -2,1 -2,5 - - 4 2 WSW 0,0
19.01.2020 21:00:00 -1,6 -2,1 - - 4 2 WNW 0,0
19.01.2020 20:00:00 -0,9 -1,5 - - 2 1 S 0,0
19.01.2020 19:00:00 -0,1 -1,5 - - 0 0 N 0,0
19.01.2020 18:00:00 3,6 1,3 - - 4 2 N 0,0
19.01.2020 17:00:00 4,5 0,8 - - 8 4 NW 0,0
19.01.2020 16:00:00 6,8 1,1 - - 4 2 NNW 0,0
19.01.2020 15:00:00 7,6 1,0 - - 4 2 N 0,0
19.01.2020 14:00:00 7,4 1,0 - - 5 3 NNW 0,0
19.01.2020 13:00:00 6,9 0,8 - - 4 2 N 0,0
19.01.2020 12:00:00 5,6 0,6 - - 9 5 NW 0,2
19.01.2020 11:00:00 3,5 0,5 - - 8 4 WNW 0,0
19.01.2020 10:00:00 0,4 0,3 - - 4 2 W 0,0
19.01.2020 09:00:00 -2,3 -2,6 5,7 9,0 4 2 WSW 0,0
19.01.2020 08:00:00 -2,9 -3,3 - - 4 2 W 0,0
19.01.2020 07:00:00 -1,9 -2,3 - - 5 3 NW 0,0
19.01.2020 06:00:00 -0,1 -0,3 - - 9 5 NW 0,0
19.01.2020 05:00:00 -1,4 -1,6 - - 5 3 NW 0,0
19.01.2020 04:00:00 -1,5 -1,7 - - 4 2 NW 0,0
19.01.2020 03:00:00 -1,7 -2,0 - - 2 1 W 0,0
19.01.2020 02:00:00 -1,6 -1,9 - - 4 2 W 0,0
19.01.2020 01:00:00 -1,3 -1,5 - - 4 2 W 0,0
19.01.2020 00:00:00 -1,1 -1,4 - - 5 3 W 0,0
18.01.2020 23:00:00 -1,1 -1,6 - - 5 3 NW 0,0
18.01.2020 22:00:00 -0,4 -0,8 - - 8 4 NW 0,0
18.01.2020 21:00:00 -0,6 -1,0 - - 5 3 W 0,0
18.01.2020 20:00:00 -0,3 -0,9 - - 5 3 NW 0,0
18.01.2020 19:00:00 0,5 -0,5 - - 2 1 WNW 0,0
18.01.2020 18:00:00 1,5 -0,2 - - 5 3 NW 0,0
18.01.2020 17:00:00 5,3 0,8 - - 5 3 NNW 0,0
18.01.2020 16:00:00 6,2 0,7 - - 8 4 NW 0,0
18.01.2020 15:00:00 7,5 0,1 - - 13 7 NW 0,0
18.01.2020 14:00:00 8,0 0,5 - - 9 5 NW 0,0
18.01.2020 13:00:00 7,1 1,8 - - 8 4 WNW 0,0
18.01.2020 12:00:00 7,1 2,1 - - 5 3 W 0,0
18.01.2020 11:00:00 5,7 4,1 - - 5 3 WSW 0,2
18.01.2020 10:00:00 1,3 1,3 - - 4 2 WSW 0,0
18.01.2020 09:00:00 -1,4 -1,6 7,0 9,2 5 3 WSW 0,0
18.01.2020 08:00:00 -1,4 -1,6 - - 5 3 SW 0,0
18.01.2020 07:00:00 -1,3 -1,5 - - 4 2 SW 0,0
18.01.2020 06:00:00 -1,3 -1,6 - - 4 2 WSW 0,0
18.01.2020 05:00:00 -1,1 -1,5 - - 4 2 W 0,0
18.01.2020 04:00:00 -0,3 -0,7 - - 4 2 WSW 0,0
18.01.2020 03:00:00 0,9 -0,1 - - 5 3 W 0,0
18.01.2020 02:00:00 1,4 0,7 - - 8 4 W 0,0

tt = temperature
td = dewpoint
tt -20cm = temperature -20cm
tt -100cm = temperature -100cm
ff = wind speed
dd = wind direction
rr = precipitation

Next stations